Time;durP1;ratioP1;P1;durP2;ratioP2;P2;SDS_P1;SDS_P2;PMS_P1;PMS_P2;Temp;Humidity;BMP_temperature;BMP_pressure;BME280_temperature;BME280_humidity;BME280_pressure;Samples;Min_cycle;Max_cycle;Signal;HPM_P1;HPM_P2
2023/06/09 00:01:11;;;;;;;7.03;6.32;;;;;;;17.70;76.90;98330.56;5027235;28;103214;-75
2023/06/09 00:03:40;;;;;;;8.43;7.60;;;;;;;17.50;77.00;98334.47;5025072;28;103004;-75
2023/06/09 00:06:09;;;;;;;9.07;8.20;;;;;;;16.99;79.63;98337.28;5027222;28;102709;-76
2023/06/09 00:08:37;;;;;;;7.77;7.07;;;;;;;17.38;78.69;98343.78;5027989;28;102884;-76
2023/06/09 00:11:05;;;;;;;9.38;7.57;;;;;;;17.38;77.57;98341.13;5009348;28;103254;-76
2023/06/09 00:13:33;;;;;;;6.90;6.30;;;;;;;17.59;76.56;98332.69;5027672;27;103142;-76
2023/06/09 00:16:02;;;;;;;8.65;7.85;;;;;;;17.28;77.25;98340.44;5019561;27;102834;-76
2023/06/09 00:18:30;;;;;;;8.83;7.93;;;;;;;16.57;82.28;98339.88;5026461;28;102885;-76
2023/06/09 00:20:59;;;;;;;6.07;5.57;;;;;;;17.14;79.73;98338.38;5027506;28;103467;-75
2023/06/09 00:23:30;;;;;;;8.20;7.50;;;;;;;17.24;78.34;98355.06;5028279;28;103100;-75
2023/06/09 00:25:58;;;;;;;6.30;5.70;;;;;;;17.51;77.41;98340.66;5017178;28;104360;-76
2023/06/09 00:28:26;;;;;;;5.78;5.28;;;;;;;17.65;76.25;98338.25;5025167;28;102708;-75
2023/06/09 00:30:54;;;;;;;7.15;6.55;;;;;;;17.67;75.62;98344.25;5008374;28;103193;-76
2023/06/09 00:33:24;;;;;;;7.72;6.85;;;;;;;17.63;75.61;98352.72;5006699;28;105863;-75
2023/06/09 00:35:52;;;;;;;6.70;6.10;;;;;;;17.67;75.45;98341.56;5027264;27;102590;-77
2023/06/09 00:38:19;;;;;;;7.28;6.50;;;;;;;17.63;75.21;98348.22;5026358;27;102703;-76
2023/06/09 00:40:50;;;;;;;8.88;8.07;;;;;;;17.10;77.58;98337.00;5003521;28;103226;-75
2023/06/09 00:43:20;;;;;;;7.57;6.97;;;;;;;17.22;77.87;98341.06;5020119;28;103249;-76
2023/06/09 00:45:48;;;;;;;6.32;5.82;;;;;;;17.42;76.70;98331.78;5008327;28;102763;-76
2023/06/09 00:48:16;;;;;;;6.20;5.63;;;;;;;17.53;75.89;98334.16;5009543;28;103027;-75
2023/06/09 00:50:46;;;;;;;8.77;8.07;;;;;;;17.40;76.61;98331.13;5006133;28;104456;-75
2023/06/09 00:53:14;;;;;;;7.80;7.10;;;;;;;17.46;76.09;98334.97;5005817;28;103240;-76
2023/06/09 00:55:42;;;;;;;8.30;7.60;;;;;;;17.40;76.16;98333.81;5024924;28;102609;-75
2023/06/09 00:58:11;;;;;;;7.43;6.83;;;;;;;17.42;75.87;98331.78;5023211;28;102858;-76
2023/06/09 01:00:40;;;;;;;7.32;6.60;;;;;;;17.45;76.08;98331.47;5008427;28;103223;-75
2023/06/09 01:03:09;;;;;;;9.97;8.83;;;;;;;16.59;78.98;98336.06;5021606;28;103510;-75
2023/06/09 01:05:44;;;;;;;9.65;8.75;;;;;;;16.07;84.38;98337.00;5026159;27;102909;-75
2023/06/09 01:08:22;;;;;;;10.23;9.37;;;;;;;15.64;87.50;98330.59;5005565;28;102932;-76
2023/06/09 01:10:56;;;;;;;9.13;8.32;;;;;;;16.23;84.59;98332.63;5006328;28;103275;-75
2023/06/09 01:13:38;;;;;;;10.05;9.15;;;;;;;16.40;80.60;98336.25;5027205;28;103159;-76
2023/06/09 01:16:10;;;;;;;10.80;9.70;;;;;;;15.78;83.99;98336.38;5025050;28;102800;-75
2023/06/09 01:18:43;;;;;;;7.88;7.18;;;;;;;16.34;82.42;98338.69;5025251;28;103242;-76
2023/06/09 01:21:21;;;;;;;7.17;6.47;;;;;;;16.73;79.88;98335.47;5014207;28;104243;-75
2023/06/09 01:24:04;;;;;;;8.35;7.55;;;;;;;16.71;78.82;98341.97;5027120;27;103183;-76
2023/06/09 01:26:38;;;;;;;6.47;5.88;;;;;;;16.88;77.85;98333.06;5025108;28;102557;-76
2023/06/09 01:29:06;;;;;;;5.63;5.18;;;;;;;17.00;76.81;98336.31;5001030;27;102757;-77
2023/06/09 01:31:36;;;;;;;8.63;7.88;;;;;;;16.74;78.20;98337.16;5008276;28;104322;-75
2023/06/09 01:34:05;;;;;;;9.20;8.37;;;;;;;16.47;78.90;98339.97;5003906;28;105100;-75
2023/06/09 01:36:35;;;;;;;8.63;7.83;;;;;;;16.58;79.27;98326.41;5025282;28;103168;-76
2023/06/09 01:39:04;;;;;;;7.32;6.72;;;;;;;16.71;78.24;98324.16;5023445;28;102956;-76
2023/06/09 01:41:32;;;;;;;8.00;7.30;;;;;;;16.72;77.51;98327.66;5025124;28;104361;-76
2023/06/09 01:44:01;;;;;;;9.60;8.68;;;;;;;15.44;84.35;98333.50;5005980;28;103386;-75
2023/06/09 01:46:29;;;;;;;9.02;8.05;;;;;;;15.86;83.86;98331.16;5003350;28;102713;-75
2023/06/09 01:49:06;;;;;;;9.80;8.50;;;;;;;15.68;83.43;98332.97;5022448;27;104612;-76
2023/06/09 01:51:37;;;;;;;9.18;8.07;;;;;;;15.68;84.13;98324.97;5026212;28;103180;-75
2023/06/09 01:54:10;;;;;;;8.67;7.87;;;;;;;15.84;82.77;98319.78;5021252;28;103188;-75
2023/06/09 01:56:43;;;;;;;7.18;6.50;;;;;;;16.33;80.88;98324.53;5005534;28;103669;-75
2023/06/09 01:59:16;;;;;;;8.90;8.10;;;;;;;15.98;80.30;98332.56;5003028;28;104089;-76
2023/06/09 02:01:51;;;;;;;9.43;8.52;;;;;;;15.58;84.35;98333.84;5008109;28;103605;-75
2023/06/09 02:04:24;;;;;;;7.22;6.65;;;;;;;16.04;82.60;98343.47;5019618;28;103409;-75
2023/06/09 02:06:52;;;;;;;5.73;5.23;;;;;;;16.36;79.88;98326.91;5000521;28;102726;-75
2023/06/09 02:09:21;;;;;;;9.13;7.75;;;;;;;16.17;79.69;98322.56;5007561;28;104326;-76
2023/06/09 02:11:51;;;;;;;8.38;7.57;;;;;;;15.72;82.33;98331.69;5005578;28;104481;-75
2023/06/09 02:14:20;;;;;;;8.82;8.02;;;;;;;15.19;84.68;98335.06;5023379;27;103986;-75
2023/06/09 02:16:48;;;;;;;9.13;8.33;;;;;;;15.25;85.22;98331.81;5023987;28;102923;-76
2023/06/09 02:19:18;;;;;;;7.93;7.23;;;;;;;15.57;84.04;98323.38;5023255;27;103183;-76
2023/06/09 02:21:46;;;;;;;9.20;8.40;;;;;;;15.07;85.64;98328.28;5007487;28;103414;-77
2023/06/09 02:24:15;;;;;;;10.40;9.40;;;;;;;14.77;87.60;98333.84;5019821;28;103890;-75
2023/06/09 02:26:43;;;;;;;9.00;8.15;;;;;;;15.07;86.99;98320.28;5007153;28;102662;-76
2023/06/09 02:29:11;;;;;;;9.07;8.25;;;;;;;15.14;87.95;98323.19;5006183;28;104479;-75
2023/06/09 02:31:40;;;;;;;10.48;9.50;;;;;;;14.70;87.48;98328.28;5025529;28;103134;-76
2023/06/09 02:34:08;;;;;;;7.55;6.85;;;;;;;15.14;87.83;98321.34;5004795;28;103750;-76
2023/06/09 02:36:37;;;;;;;8.25;7.57;;;;;;;15.33;85.54;98323.91;5003941;28;103202;-77
2023/06/09 02:39:05;;;;;;;8.13;7.43;;;;;;;15.77;82.52;98321.41;5007756;28;102839;-77
2023/06/09 02:41:33;;;;;;;9.23;8.32;;;;;;;15.58;81.06;98323.22;5020049;27;104421;-75
2023/06/09 02:44:02;;;;;;;7.90;7.20;;;;;;;15.59;81.58;98322.22;4999564;28;103597;-75
2023/06/09 02:46:30;;;;;;;6.90;6.37;;;;;;;15.77;81.68;98332.06;5006697;28;102780;-76
2023/06/09 02:48:59;;;;;;;9.60;8.70;;;;;;;15.14;82.72;98334.66;5022662;28;103815;-76
2023/06/09 02:51:27;;;;;;;9.47;8.60;;;;;;;15.19;84.17;98332.38;5005823;28;103768;-76
2023/06/09 02:53:55;;;;;;;7.25;6.65;;;;;;;15.70;82.71;98333.63;5024793;28;103119;-75
2023/06/09 02:56:23;;;;;;;6.05;5.60;;;;;;;15.95;80.88;98331.06;4998858;28;103163;-75
2023/06/09 02:58:53;;;;;;;6.80;6.22;;;;;;;16.08;79.55;98336.00;5007529;28;102976;-77
2023/06/09 03:01:22;;;;;;;9.30;8.40;;;;;;;15.10;82.20;98335.97;5010180;27;103900;-75
2023/06/09 03:03:52;;;;;;;9.75;8.18;;;;;;;15.24;83.79;98338.09;5007023;28;103352;-75
2023/06/09 03:06:21;;;;;;;9.43;8.45;;;;;;;15.25;83.34;98342.44;5028498;28;103071;-75
2023/06/09 03:08:49;;;;;;;10.15;8.77;;;;;;;14.53;86.23;98339.66;5009917;28;102605;-75
2023/06/09 03:11:18;;;;;;;8.70;8.00;;;;;;;14.92;87.29;98335.06;5005849;28;102774;-76
2023/06/09 03:13:46;;;;;;;9.00;8.20;;;;;;;15.32;84.13;98332.91;5005996;28;104108;-75
2023/06/09 03:16:15;;;;;;;7.45;6.82;;;;;;;15.67;82.09;98329.47;5027009;28;102595;-75
2023/06/09 03:18:46;;;;;;;7.55;6.90;;;;;;;15.72;80.38;98337.00;5003961;28;102704;-75
2023/06/09 03:21:14;;;;;;;9.00;8.20;;;;;;;15.44;82.44;98338.81;5008629;28;105249;-74
2023/06/09 03:23:44;;;;;;;6.97;6.47;;;;;;;15.67;81.51;98340.09;5010246;28;106162;-75
2023/06/09 03:26:12;;;;;;;9.05;8.25;;;;;;;15.63;80.39;98338.75;5006400;28;103280;-76
2023/06/09 03:28:40;;;;;;;8.60;7.80;;;;;;;15.49;81.55;98332.13;5020753;27;103246;-75
2023/06/09 03:31:08;;;;;;;6.95;6.35;;;;;;;15.76;80.47;98333.03;5027035;28;104457;-75
2023/06/09 03:33:37;;;;;;;9.10;8.10;;;;;;;15.34;79.91;98338.91;5006565;28;103210;-77
2023/06/09 03:36:05;;;;;;;9.10;8.20;;;;;;;15.09;82.49;98335.13;5027633;27;104194;-76
2023/06/09 03:38:36;;;;;;;8.83;8.13;;;;;;;15.06;83.88;98346.06;5003959;28;104020;-77
2023/06/09 03:41:06;;;;;;;8.18;7.47;;;;;;;15.40;82.25;98338.31;5009791;28;105001;-75
2023/06/09 03:43:34;;;;;;;7.80;7.10;;;;;;;15.48;80.84;98346.41;5011962;28;103147;-76
2023/06/09 03:46:03;;;;;;;8.52;7.72;;;;;;;15.36;82.46;98346.72;5009712;28;102644;-76
2023/06/09 03:48:32;;;;;;;9.65;8.75;;;;;;;14.68;85.98;98346.19;5003507;28;103930;-76
2023/06/09 03:51:00;;;;;;;7.82;7.22;;;;;;;15.29;84.49;98341.19;5010703;27;103355;-77
2023/06/09 03:53:29;;;;;;;9.55;8.68;;;;;;;15.17;82.58;98339.69;5009973;28;103229;-75
2023/06/09 03:55:58;;;;;;;7.60;6.80;;;;;;;15.48;83.45;98340.25;5009892;28;102694;-76
2023/06/09 03:58:28;;;;;;;8.73;7.93;;;;;;;15.49;81.49;98337.44;4999498;27;105763;-75
2023/06/09 04:00:57;;;;;;;8.27;7.47;;;;;;;15.74;81.67;98340.34;5007029;28;105034;-75
2023/06/09 04:03:30;;;;;;;8.10;7.40;;;;;;;15.87;80.14;98341.63;5008522;27;103307;-75
2023/06/09 04:06:00;;;;;;;9.57;8.77;;;;;;;15.34;83.31;98344.22;5028141;27;102869;-76
2023/06/09 04:08:29;;;;;;;6.97;6.37;;;;;;;15.77;82.22;98340.03;5016730;28;103051;-77
2023/06/09 04:10:59;;;;;;;6.90;6.30;;;;;;;16.03;80.92;98340.94;5025642;28;103553;-76
2023/06/09 04:13:28;;;;;;;6.57;6.07;;;;;;;15.94;80.40;98339.22;5008836;28;103741;-75
2023/06/09 04:15:57;;;;;;;7.60;7.00;;;;;;;16.15;80.70;98342.38;5006855;28;102746;-76
2023/06/09 04:18:26;;;;;;;9.50;8.50;;;;;;;15.99;81.66;98339.59;5009463;28;102918;-76
2023/06/09 04:20:55;;;;;;;8.10;7.45;;;;;;;16.12;81.86;98346.19;5013143;28;104397;-75
2023/06/09 04:23:22;;;;;;;8.77;7.83;;;;;;;16.06;81.94;98335.31;5008799;28;103178;-75
2023/06/09 04:25:53;;;;;;;9.63;8.63;;;;;;;15.88;83.03;98337.16;5027260;28;102701;-76
2023/06/09 04:28:22;;;;;;;8.93;8.02;;;;;;;16.13;82.06;98329.22;5017265;28;102880;-75
2023/06/09 04:30:57;;;;;;;6.20;5.68;;;;;;;16.47;80.31;98331.97;5007750;28;102904;-76
2023/06/09 04:33:26;;;;;;;6.07;5.57;;;;;;;16.66;79.24;98331.78;5028040;28;103600;-75
2023/06/09 04:35:57;;;;;;;6.97;6.38;;;;;;;16.85;78.48;98340.53;5010732;28;102832;-76
2023/06/09 04:38:30;;;;;;;8.03;7.40;;;;;;;16.67;79.35;98335.31;5008539;28;104642;-76
2023/06/09 04:41:03;;;;;;;7.87;7.17;;;;;;;16.85;78.72;98335.22;5024305;27;103881;-75
2023/06/09 04:43:34;;;;;;;8.80;8.10;;;;;;;16.71;79.25;98350.81;5009699;28;103285;-76
2023/06/09 04:46:06;;;;;;;9.70;8.52;;;;;;;16.47;82.06;98345.31;5010012;28;102957;-78
2023/06/09 04:48:35;;;;;;;7.50;6.80;;;;;;;16.80;80.83;98349.88;5009378;28;103279;-78
2023/06/09 04:51:04;;;;;;;8.97;8.20;;;;;;;16.86;79.41;98340.41;5009295;28;104261;-78
2023/06/09 04:53:39;;;;;;;6.65;6.05;;;;;;;17.12;77.84;98343.84;5006729;28;103228;-76
2023/06/09 04:56:08;;;;;;;7.60;6.90;;;;;;;17.31;77.67;98346.28;5009318;28;102656;-75
2023/06/09 04:58:39;;;;;;;7.20;6.60;;;;;;;17.22;77.73;98346.41;5007677;28;104160;-75
2023/06/09 05:01:08;;;;;;;6.40;5.90;;;;;;;17.38;77.30;98346.44;5008426;27;104084;-75
2023/06/09 05:03:36;;;;;;;6.20;5.72;;;;;;;17.54;76.93;98343.03;5025343;27;103440;-78
2023/06/09 05:06:04;;;;;;;8.95;8.25;;;;;;;17.59;77.29;98352.25;5007580;28;102672;-77
2023/06/09 05:08:33;;;;;;;8.97;8.17;;;;;;;17.67;76.82;98341.56;5008619;28;104254;-77
2023/06/09 05:11:03;;;;;;;11.30;10.20;;;;;;;17.43;77.46;98354.00;5022913;28;105120;-76
2023/06/09 05:13:31;;;;;;;10.77;9.77;;;;;;;17.33;78.17;98351.44;5008175;28;103186;-77
2023/06/09 05:15:59;;;;;;;11.27;10.35;;;;;;;17.15;80.39;98350.72;5010038;28;102621;-76
2023/06/09 05:18:29;;;;;;;11.35;10.45;;;;;;;17.29;78.89;98352.78;5007770;28;102710;-76
2023/06/09 05:21:01;;;;;;;9.20;8.50;;;;;;;17.67;77.85;98352.25;5008123;28;102967;-76
2023/06/09 05:23:30;;;;;;;10.60;9.60;;;;;;;17.92;77.56;98351.28;5009875;27;104153;-76
2023/06/09 05:25:58;;;;;;;9.48;8.75;;;;;;;18.01;77.55;98352.16;5007725;27;103195;-77
2023/06/09 05:28:26;;;;;;;10.73;9.83;;;;;;;18.11;77.47;98357.31;5008761;27;104518;-76
2023/06/09 05:30:53;;;;;;;8.57;7.95;;;;;;;18.28;76.79;98359.00;5009943;28;103183;-76
2023/06/09 05:33:22;;;;;;;10.02;9.23;;;;;;;18.42;76.92;98355.66;5009545;27;105059;-76
2023/06/09 05:35:52;;;;;;;8.27;7.57;;;;;;;18.56;76.33;98360.34;5009097;27;103171;-76
2023/06/09 05:38:23;;;;;;;11.35;10.40;;;;;;;18.56;76.69;98360.34;5020813;27;102808;-76
2023/06/09 05:40:51;;;;;;;12.85;11.75;;;;;;;18.00;78.11;98357.63;5027880;27;103612;-77
2023/06/09 05:43:19;;;;;;;15.00;13.70;;;;;;;17.44;81.74;98363.66;5026692;27;103136;-76
2023/06/09 05:45:47;;;;;;;12.65;11.52;;;;;;;18.15;79.56;98356.84;5024801;27;102599;-77
2023/06/09 05:48:17;;;;;;;9.80;9.10;;;;;;;18.62;78.85;98365.03;5025164;28;103890;-76
2023/06/09 05:50:46;;;;;;;8.93;8.20;;;;;;;18.90;76.57;98366.31;5025714;28;103523;-76
2023/06/09 05:53:16;;;;;;;15.05;13.75;;;;;;;18.01;81.16;98364.66;5025963;28;103337;-77
2023/06/09 05:55:44;;;;;;;15.05;13.75;;;;;;;17.99;82.00;98372.88;5023699;28;102949;-76
2023/06/09 05:58:12;;;;;;;15.23;13.93;;;;;;;17.89;83.19;98377.50;5025985;28;104887;-76
2023/06/09 06:00:41;;;;;;;16.50;15.20;;;;;;;17.50;84.30;98371.88;5025522;27;103901;-76
2023/06/09 06:03:10;;;;;;;17.25;15.75;;;;;;;17.25;85.06;98373.63;5025874;28;103174;-76
2023/06/09 06:05:39;;;;;;;16.65;15.13;;;;;;;17.42;85.36;98384.34;5007278;28;102685;-76
2023/06/09 06:08:07;;;;;;;16.87;15.47;;;;;;;17.33;84.76;98376.31;5007455;28;102970;-76
2023/06/09 06:10:36;;;;;;;15.50;14.20;;;;;;;17.81;84.35;98374.81;5023044;28;103482;-76
2023/06/09 06:13:04;;;;;;;11.20;10.20;;;;;;;18.69;80.91;98381.25;5021029;28;103343;-76
2023/06/09 06:15:32;;;;;;;14.50;13.30;;;;;;;19.00;77.47;98379.50;5025259;28;102684;-76
2023/06/09 06:17:59;;;;;;;15.57;14.23;;;;;;;18.65;77.48;98380.75;5024126;28;102727;-76
2023/06/09 06:20:28;;;;;;;11.40;10.50;;;;;;;19.42;76.43;98369.34;5022191;28;103304;-77
2023/06/09 06:22:57;;;;;;;9.68;8.88;;;;;;;19.81;74.55;98368.47;5021233;28;103164;-75
2023/06/09 06:25:25;;;;;;;11.18;10.23;;;;;;;20.04;73.19;98370.16;5021047;27;102870;-76
2023/06/09 06:27:54;;;;;;;14.57;13.17;;;;;;;19.41;71.25;98362.31;5025938;27;103021;-77
2023/06/09 06:30:22;;;;;;;11.87;10.87;;;;;;;19.63;73.15;98372.25;5023533;28;104185;-75
2023/06/09 06:32:51;;;;;;;12.05;11.05;;;;;;;20.07;69.51;98364.44;5024657;28;104319;-76
2023/06/09 06:35:26;;;;;;;13.25;12.13;;;;;;;19.66;74.10;98371.06;5025056;28;102963;-77
2023/06/09 06:37:54;;;;;;;13.93;12.63;;;;;;;19.37;74.11;98381.56;5023781;28;102569;-77
2023/06/09 06:40:22;;;;;;;10.02;9.23;;;;;;;19.83;72.61;98377.16;5025931;27;103338;-77
2023/06/09 06:42:51;;;;;;;9.88;9.07;;;;;;;20.43;71.23;98371.91;5022816;27;103164;-76
2023/06/09 06:45:30;;;;;;;10.98;9.98;;;;;;;20.47;71.69;98370.50;5022978;27;102794;-80
2023/06/09 06:47:58;;;;;;;11.60;10.60;;;;;;;20.38;70.02;98366.25;5025646;27;104852;-77
2023/06/09 06:50:28;;;;;;;9.45;8.65;;;;;;;20.81;70.34;98373.56;5025777;27;103217;-78
2023/06/09 06:52:56;;;;;;;8.57;7.85;;;;;;;21.21;68.72;98367.78;5023476;27;102962;-82
2023/06/09 06:55:24;;;;;;;8.73;8.02;;;;;;;21.29;68.28;98367.69;5023309;27;102605;-79
2023/06/09 06:57:55;;;;;;;7.43;6.82;;;;;;;21.57;68.37;98375.06;5022531;28;102585;-80
2023/06/09 07:00:24;;;;;;;8.75;8.05;;;;;;;21.72;67.75;98378.56;5024685;28;103237;-79
2023/06/09 07:02:54;;;;;;;8.03;7.33;;;;;;;22.08;66.84;98368.66;5024211;28;103213;-76
2023/06/09 07:05:22;;;;;;;8.50;7.80;;;;;;;22.33;65.27;98375.31;5023240;28;102953;-78
2023/06/09 07:07:50;;;;;;;9.90;9.07;;;;;;;22.27;66.04;98378.78;5005725;28;102948;-79
2023/06/09 07:10:20;;;;;;;10.35;9.40;;;;;;;21.72;66.96;98384.78;5008169;28;103204;-77
2023/06/09 07:12:49;;;;;;;8.13;7.32;;;;;;;22.27;65.20;98381.47;5025062;28;103155;-77
2023/06/09 07:15:23;;;;;;;7.93;7.23;;;;;;;22.59;64.13;98382.81;5023405;28;102959;-81
2023/06/09 07:17:51;;;;;;;9.20;8.30;;;;;;;22.32;62.75;98378.19;5026685;28;102635;-76
2023/06/09 07:20:21;;;;;;;9.93;9.03;;;;;;;22.15;65.38;98380.31;5004916;28;103312;-83
2023/06/09 07:22:52;;;;;;;6.10;5.60;;;;;;;22.96;62.84;98368.22;5021736;28;102673;-78
2023/06/09 07:25:20;;;;;;;7.97;7.38;;;;;;;22.78;62.91;98378.63;5017865;28;103975;-78
2023/06/09 07:27:48;;;;;;;8.10;7.40;;;;;;;23.08;62.04;98388.16;5004053;28;102841;-77
2023/06/09 07:30:16;;;;;;;8.50;7.80;;;;;;;22.88;62.22;98387.19;5022221;28;103932;-78
2023/06/09 07:32:44;;;;;;;7.33;6.67;;;;;;;23.58;61.22;98395.94;5021950;28;103141;-78
2023/06/09 07:35:13;;;;;;;7.78;7.18;;;;;;;23.84;59.82;98383.59;5020306;28;102837;-79
2023/06/09 07:37:43;;;;;;;6.87;6.27;;;;;;;24.28;60.12;98392.03;5005401;28;104309;-78
2023/06/09 07:40:11;;;;;;;9.13;8.32;;;;;;;23.25;60.36;98394.91;5021098;28;103970;-78
2023/06/09 07:42:48;;;;;;;7.25;6.65;;;;;;;24.07;58.56;98384.09;5004434;28;103230;-79
2023/06/09 07:45:16;;;;;;;8.40;7.50;;;;;;;23.10;61.81;98386.13;5007801;28;102968;-80
2023/06/09 07:47:45;;;;;;;7.60;7.00;;;;;;;23.40;61.60;98387.56;5008731;28;104314;-78
2023/06/09 07:50:13;;;;;;;7.20;6.60;;;;;;;23.34;60.95;98390.19;5008044;28;104674;-77
2023/06/09 07:52:42;;;;;;;6.05;5.45;;;;;;;24.60;58.00;98376.94;5007369;28;104289;-78
2023/06/09 07:55:11;;;;;;;7.43;6.70;;;;;;;24.63;57.09;98377.34;5026244;28;103070;-78
2023/06/09 07:57:42;;;;;;;8.05;7.38;;;;;;;23.67;60.80;98381.25;5027132;28;103214;-78
2023/06/09 08:00:11;;;;;;;8.38;7.55;;;;;;;23.52;60.47;98385.94;5020817;28;103217;-78
2023/06/09 08:02:42;;;;;;;8.20;7.50;;;;;;;23.56;59.08;98381.84;5026508;28;103495;-78
2023/06/09 08:05:16;;;;;;;8.32;7.63;;;;;;;23.96;58.12;98373.91;5007897;28;102764;-78
2023/06/09 08:07:46;;;;;;;7.35;6.75;;;;;;;25.37;54.78;98367.06;5007308;28;104045;-78
2023/06/09 08:10:14;;;;;;;8.80;7.90;;;;;;;24.54;55.88;98375.06;5023841;28;103506;-78
2023/06/09 08:12:42;;;;;;;7.50;6.80;;;;;;;25.37;54.16;98360.88;5027723;28;103163;-78
2023/06/09 08:15:13;;;;;;;7.75;6.32;;;;;;;25.26;57.36;98367.72;5026919;27;103093;-79
2023/06/09 08:17:43;;;;;;;6.63;6.03;;;;;;;26.45;53.73;98351.78;5026278;28;104238;-78
2023/06/09 08:20:11;;;;;;;8.00;7.10;;;;;;;23.78;55.82;98370.91;5023152;28;104137;-79
2023/06/09 08:22:39;;;;;;;7.93;7.20;;;;;;;24.61;56.45;98360.53;5008671;28;104281;-78
2023/06/09 08:25:11;;;;;;;8.07;7.30;;;;;;;25.09;55.47;98357.59;5027355;27;102874;-78
2023/06/09 08:27:39;;;;;;;7.10;6.40;;;;;;;24.66;55.10;98357.19;5025939;27;104447;-78
2023/06/09 08:30:08;;;;;;;6.90;5.82;;;;;;;25.28;56.18;98351.31;5028087;27;103196;-78
2023/06/09 08:32:39;;;;;;;5.45;4.97;;;;;;;27.54;52.57;98352.03;5024528;27;103191;-78
2023/06/09 08:35:08;;;;;;;5.83;5.33;;;;;;;28.26;51.05;98339.41;5005470;28;102822;-79
2023/06/09 08:37:37;;;;;;;5.60;5.20;;;;;;;27.11;49.25;98343.94;5027303;27;103558;-78
2023/06/09 08:40:08;;;;;;;5.57;5.07;;;;;;;27.46;49.82;98339.59;5005937;28;104116;-78
2023/06/09 08:42:39;;;;;;;3.92;3.63;;;;;;;29.59;46.86;98337.69;5020196;27;103266;-79
2023/06/09 08:45:08;;;;;;;4.93;4.53;;;;;;;30.22;44.66;98327.53;5009964;28;103031;-79
2023/06/09 08:47:38;;;;;;;5.53;5.13;;;;;;;27.54;45.79;98333.88;5005244;28;104163;-80
2023/06/09 08:50:08;;;;;;;5.50;5.10;;;;;;;26.78;49.53;98328.00;5005558;28;103378;-80
2023/06/09 08:52:38;;;;;;;5.85;5.35;;;;;;;27.41;48.47;98325.06;5017411;28;104311;-78
2023/06/09 08:55:08;;;;;;;5.10;4.70;;;;;;;28.51;47.63;98319.16;5009641;28;102647;-82
2023/06/09 08:57:38;;;;;;;4.60;4.20;;;;;;;28.08;44.88;98324.81;5011685;28;102776;-81
2023/06/09 09:00:12;;;;;;;4.78;4.40;;;;;;;28.75;46.97;98309.97;5025692;27;102975;-81
2023/06/09 09:02:43;;;;;;;5.57;4.50;;;;;;;29.25;46.13;98318.47;5010723;27;103601;-81
2023/06/09 09:05:14;;;;;;;5.20;4.70;;;;;;;28.19;45.34;98312.34;5008401;28;103090;-78
2023/06/09 09:07:45;;;;;;;4.22;3.83;;;;;;;29.88;45.90;98314.91;5028799;27;104801;-81
2023/06/09 09:10:13;;;;;;;4.10;3.80;;;;;;;30.52;43.10;98320.97;5007345;28;103216;-81
2023/06/09 09:12:53;;;;;;;3.60;3.30;;;;;;;31.25;40.42;98321.56;5006360;28;103266;-80
2023/06/09 09:15:25;;;;;;;3.50;3.30;;;;;;;30.42;40.88;98317.03;5027113;27;103393;-80
2023/06/09 09:17:54;;;;;;;3.88;3.58;;;;;;;30.08;41.11;98322.63;5009210;27;102756;-80
2023/06/09 09:20:32;;;;;;;3.40;3.13;;;;;;;30.98;40.03;98320.66;5005394;28;104803;-80
2023/06/09 09:23:00;;;;;;;3.75;3.45;;;;;;;31.49;40.49;98317.56;5026129;27;103137;-80
2023/06/09 09:25:29;;;;;;;3.60;3.30;;;;;;;30.93;40.10;98318.66;5033121;27;103285;-80
2023/06/09 09:28:02;;;;;;;4.15;3.50;;;;;;;31.33;39.19;98317.56;5010211;28;104215;-81
2023/06/09 09:30:58;;;;;;;3.97;3.58;;;;;;;31.14;39.65;98314.31;5027061;27;104586;-81
2023/06/09 09:33:27;;;;;;;3.72;3.33;;;;;;;32.09;38.47;98311.16;4988336;27;103184;-81
2023/06/09 09:35:58;;;;;;;3.53;3.13;;;;;;;32.05;38.49;98312.78;5007886;28;102723;-79
2023/06/09 09:38:27;;;;;;;3.15;2.70;;;;;;;32.69;38.00;98311.75;5026251;27;103620;-76
2023/06/09 09:40:57;;;;;;;3.70;3.40;;;;;;;31.85;36.28;98315.25;5011174;28;103273;-79
2023/06/09 09:43:26;;;;;;;3.92;3.63;;;;;;;31.89;37.35;98313.69;5033617;27;103447;-78
2023/06/09 09:45:55;;;;;;;3.70;3.40;;;;;;;31.64;36.65;98303.25;5036390;28;102909;-80
2023/06/09 09:48:25;;;;;;;3.43;3.13;;;;;;;31.63;37.37;98303.53;5037921;28;103869;-82
2023/06/09 09:50:55;;;;;;;3.50;3.20;;;;;;;30.95;38.73;98302.88;5035946;28;104113;-82
2023/06/09 09:53:24;;;;;;;3.33;3.13;;;;;;;31.70;38.50;98290.50;5019393;28;103202;-81
2023/06/09 09:55:54;;;;;;;3.70;3.40;;;;;;;31.65;37.63;98293.19;5017833;28;102714;-83
2023/06/09 09:58:30;;;;;;;3.80;3.50;;;;;;;31.81;37.83;98286.78;5038833;27;102897;-80
2023/06/09 10:01:02;;;;;;;3.65;3.38;;;;;;;31.56;37.30;98290.91;5022239;27;103166;-81
2023/06/09 10:03:35;;;;;;;3.67;3.35;;;;;;;32.24;37.55;98272.25;5022561;27;103277;-80
2023/06/09 10:06:04;;;;;;;3.77;3.30;;;;;;;31.65;38.00;98282.25;5024007;27;103000;-83
2023/06/09 10:08:33;;;;;;;3.50;3.30;;;;;;;32.02;37.83;98277.78;5025336;28;102600;-80
2023/06/09 10:11:02;;;;;;;3.47;3.17;;;;;;;31.71;35.84;98281.22;5026311;27;104237;-82
2023/06/09 10:13:30;;;;;;;3.60;3.00;;;;;;;32.22;35.61;98285.34;5026659;27;103163;-81
2023/06/09 10:15:59;;;;;;;3.88;3.53;;;;;;;31.65;34.68;98290.44;5025918;27;102577;-83
2023/06/09 10:18:28;;;;;;;3.50;3.20;;;;;;;31.54;37.72;98282.16;5025533;28;102602;-84
2023/06/09 10:20:57;;;;;;;3.40;3.10;;;;;;;32.50;35.55;98274.09;5030554;27;104689;-88
2023/06/09 10:23:27;;;;;;;3.95;3.55;;;;;;;32.63;35.89;98277.25;5008690;28;103136;-86
2023/06/09 10:25:55;;;;;;;3.92;3.60;;;;;;;32.32;37.75;98282.69;5023149;27;102979;-82
2023/06/09 10:28:23;;;;;;;3.85;3.55;;;;;;;32.32;36.76;98272.59;5008260;28;102862;-82
2023/06/09 10:30:51;;;;;;;4.90;3.72;;;;;;;32.56;35.74;98276.63;5004920;27;104287;-84
2023/06/09 10:33:23;;;;;;;4.03;3.33;;;;;;;32.79;37.18;98277.38;5023491;27;103186;-86
2023/06/09 10:35:58;;;;;;;4.30;3.40;;;;;;;31.15;35.98;98280.53;5007935;27;102595;-81
2023/06/09 10:38:30;;;;;;;3.28;3.00;;;;;;;32.27;36.94;98278.00;5027671;27;103561;-80
2023/06/09 10:41:13;;;;;;;3.25;2.95;;;;;;;31.58;36.22;98277.81;5007204;27;104123;-78
2023/06/09 10:43:59;;;;;;;2.85;2.65;;;;;;;33.07;34.83;98269.63;5019431;28;103328;-84
2023/06/09 10:46:42;;;;;;;3.50;3.20;;;;;;;32.90;36.10;98270.88;5020521;28;103732;-78
2023/06/09 10:49:36;;;;;;;3.20;3.00;;;;;;;32.63;32.35;98265.47;5003018;28;104290;-82
2023/06/09 10:52:07;;;;;;;3.50;3.20;;;;;;;31.90;35.85;98263.41;5021097;28;103223;-77
2023/06/09 10:54:35;;;;;;;3.25;3.00;;;;;;;32.78;34.42;98259.28;5021025;27;103356;-80
2023/06/09 10:57:07;;;;;;;3.92;3.15;;;;;;;30.75;36.03;98267.09;5017668;27;103291;-83
2023/06/09 11:00:15;;;;;;;3.17;2.97;;;;;;;31.56;34.47;98263.59;5022485;27;104012;-81
2023/06/09 11:02:46;;;;;;;3.10;2.90;;;;;;;32.85;32.15;98259.88;5023369;27;103182;-77
2023/06/09 11:05:15;;;;;;;3.47;3.17;;;;;;;32.27;32.86;98258.88;5023725;27;103227;-78
2023/06/09 11:07:47;;;;;;;3.00;2.80;;;;;;;32.31;34.03;98249.06;5021665;28;102845;-82
2023/06/09 11:10:33;;;;;;;3.20;3.00;;;;;;;32.02;34.09;98245.81;5015730;28;102916;-81
2023/06/09 11:13:03;;;;;;;3.60;3.08;;;;;;;30.64;35.42;98259.03;5017166;28;103670;-79
2023/06/09 11:16:01;;;;;;;4.65;3.25;;;;;;;30.00;36.73;98253.03;5022599;27;103384;-85
2023/06/09 11:18:30;;;;;;;3.00;2.80;;;;;;;31.17;35.68;98248.34;5023877;28;103547;-84
2023/06/09 11:21:23;;;;;;;3.50;3.20;;;;;;;32.33;34.61;98244.19;5025632;28;103116;-92
2023/06/09 11:24:03;;;;;;;3.20;3.00;;;;;;;32.88;33.13;98241.03;5029619;27;103473;-88
2023/06/09 11:26:33;;;;;;;3.20;2.93;;;;;;;32.21;34.28;98238.06;5028619;27;103195;-87
2023/06/09 11:29:04;;;;;;;3.30;3.10;;;;;;;32.02;35.46;98239.53;5030123;27;102573;-84
2023/06/09 11:31:51;;;;;;;3.10;2.90;;;;;;;32.65;34.17;98239.50;5009322;28;103546;-89
2023/06/09 11:34:55;;;;;;;3.20;2.90;;;;;;;32.72;32.93;98235.72;5008720;28;103404;-92
2023/06/09 11:37:24;;;;;;;3.10;2.90;;;;;;;33.25;33.20;98232.78;5028758;27;103158;-81
2023/06/09 11:39:54;;;;;;;2.90;2.70;;;;;;;31.71;31.47;98237.56;5025573;27;103496;-85